Time;durP1;ratioP1;P1;durP2;ratioP2;P2;SDS_P1;SDS_P2;PMS_P1;PMS_P2;Temp;Humidity;BMP_temperature;BMP_pressure;BME280_temperature;BME280_humidity;BME280_pressure;Samples;Min_cycle;Max_cycle;Signal;HPM_P1;HPM_P2
2023/06/21 00:00:27;;;;;;;10.35;6.68;;;;;;;21.67;60.59;99806.22;3155860;28;20048;-69
2023/06/21 00:01:59;;;;;;;8.13;5.82;;;;;;;21.64;60.50;99808.31;3135276;28;20049;-69
2023/06/21 00:03:31;;;;;;;9.43;6.53;;;;;;;21.56;60.85;99809.88;3159050;28;20048;-69
2023/06/21 00:05:02;;;;;;;9.00;6.45;;;;;;;21.51;61.51;99811.25;3154625;28;20055;-69
2023/06/21 00:06:35;;;;;;;13.20;6.55;;;;;;;21.48;61.08;99804.41;3158172;28;20418;-69
2023/06/21 00:08:06;;;;;;;9.63;7.15;;;;;;;21.46;61.43;99802.88;3159756;28;20048;-69
2023/06/21 00:09:39;;;;;;;12.65;6.65;;;;;;;21.47;61.61;99805.38;3156894;28;20056;-69
2023/06/21 00:11:11;;;;;;;7.18;5.47;;;;;;;21.46;61.66;99802.88;3151826;28;20053;-69
2023/06/21 00:12:43;;;;;;;10.13;7.20;;;;;;;21.45;61.65;99807.34;3154840;28;20468;-69
2023/06/21 00:14:15;;;;;;;8.68;5.97;;;;;;;21.44;61.95;99805.66;3159686;28;20380;-69
2023/06/21 00:15:49;;;;;;;10.65;6.82;;;;;;;21.44;61.66;99802.16;3155081;28;20097;-69
2023/06/21 00:17:21;;;;;;;7.93;5.95;;;;;;;21.42;61.82;99802.31;3159986;28;20044;-69
2023/06/21 00:18:53;;;;;;;9.23;6.30;;;;;;;21.44;62.01;99800.34;3154039;28;20172;-69
2023/06/21 00:20:25;;;;;;;10.43;6.07;;;;;;;21.46;61.67;99797.56;3157136;28;20452;-69
2023/06/21 00:21:58;;;;;;;11.60;6.82;;;;;;;21.35;61.99;99780.81;3159697;28;20052;-69
2023/06/21 00:23:29;;;;;;;9.65;6.65;;;;;;;21.44;61.83;99796.88;3159891;28;20040;-69
2023/06/21 00:25:00;;;;;;;8.30;6.45;;;;;;;21.44;61.77;99797.69;3159606;28;20051;-69
2023/06/21 00:26:32;;;;;;;11.55;7.85;;;;;;;21.44;61.98;99803.00;3150240;28;20052;-70
2023/06/21 00:28:04;;;;;;;22.02;10.02;;;;;;;21.42;62.31;99796.19;3159472;28;20048;-70
2023/06/21 00:29:36;;;;;;;21.83;12.00;;;;;;;21.38;62.07;99792.97;3155699;28;20525;-70
2023/06/21 00:31:10;;;;;;;20.70;12.65;;;;;;;21.40;62.07;99798.97;3159665;28;20059;-69
2023/06/21 00:32:41;;;;;;;17.73;11.80;;;;;;;21.36;62.25;99794.94;3150916;28;20076;-68
2023/06/21 00:34:13;;;;;;;19.52;12.32;;;;;;;21.38;61.97;99795.63;3157787;28;20048;-68
2023/06/21 00:35:44;;;;;;;19.48;11.25;;;;;;;21.40;62.07;99798.97;3152662;28;20049;-69
2023/06/21 00:37:16;;;;;;;18.25;9.63;;;;;;;21.39;61.88;99796.47;3147259;28;20533;-70
2023/06/21 00:38:48;;;;;;;14.85;9.23;;;;;;;21.38;61.57;99803.56;3155150;28;20062;-70
2023/06/21 00:40:22;;;;;;;16.10;9.40;;;;;;;21.37;61.30;99801.06;3151719;28;20055;-69
2023/06/21 00:41:53;;;;;;;;;;;;;;;21.18;61.70;99794.75;3153150;28;20097;-69
2023/06/21 00:43:25;;;;;;;13.82;7.72;;;;;;;21.21;61.65;99799.78;3152874;28;20340;-68
2023/06/21 00:44:57;;;;;;;14.70;6.63;;;;;;;21.26;61.42;99808.13;3153414;28;20516;-70
2023/06/21 00:46:31;;;;;;;11.35;7.25;;;;;;;21.29;60.88;99802.53;3157730;28;20112;-70
2023/06/21 00:48:02;;;;;;;12.68;8.25;;;;;;;21.26;60.71;99805.47;3157051;28;20082;-67
2023/06/21 00:49:35;;;;;;;11.40;6.88;;;;;;;21.24;60.75;99802.13;3158879;28;20056;-67
2023/06/21 00:51:07;;;;;;;15.13;6.93;;;;;;;21.22;60.82;99805.91;3158273;28;20056;-68
2023/06/21 00:52:40;;;;;;;11.80;7.55;;;;;;;21.23;60.55;99812.84;3159098;28;20063;-70
2023/06/21 00:54:16;;;;;;;9.98;6.55;;;;;;;21.21;60.67;99814.78;3159347;28;20048;-70
2023/06/21 00:55:48;;;;;;;9.40;6.50;;;;;;;21.02;60.64;99784.66;3155160;28;20084;-70
2023/06/21 00:57:20;;;;;;;9.02;6.15;;;;;;;21.18;60.47;99809.78;3151047;28;20040;-69
2023/06/21 00:58:52;;;;;;;13.40;6.65;;;;;;;21.19;60.33;99798.22;3155108;28;20110;-69
2023/06/21 01:00:25;;;;;;;12.15;6.90;;;;;;;21.20;60.49;99803.38;3154309;28;20072;-69
2023/06/21 01:02:00;;;;;;;10.53;6.93;;;;;;;21.19;60.28;99803.53;3158450;28;20269;-69
2023/06/21 01:03:32;;;;;;;16.92;7.32;;;;;;;21.16;60.62;99812.56;3158885;28;20051;-68
2023/06/21 01:05:04;;;;;;;11.95;7.30;;;;;;;21.16;60.74;99812.56;3154358;28;20045;-68
2023/06/21 01:06:42;;;;;;;14.70;7.30;;;;;;;21.18;60.47;99815.06;3154056;28;20840;-69
2023/06/21 01:08:23;;;;;;;13.07;6.90;;;;;;;21.14;60.59;99815.34;3153644;28;20139;-69
2023/06/21 01:10:08;;;;;;;11.07;6.75;;;;;;;21.14;60.46;99812.69;3152245;28;20055;-69
2023/06/21 01:11:52;;;;;;;13.80;6.70;;;;;;;21.13;60.52;99816.31;3141452;28;20517;-70
2023/06/21 01:13:32;;;;;;;;;;;;;;;20.93;60.79;99809.31;3132879;28;20071;-70
2023/06/21 01:15:07;;;;;;;9.23;6.50;;;;;;;20.94;60.80;99805.72;3138880;28;20464;-70
2023/06/21 01:16:40;;;;;;;12.15;7.38;;;;;;;20.94;61.00;99805.72;3135437;28;20053;-69
2023/06/21 01:18:16;;;;;;;18.05;7.82;;;;;;;20.97;61.24;99808.09;3153618;28;20062;-71
2023/06/21 01:19:50;;;;;;;13.15;7.78;;;;;;;20.98;61.09;99807.09;3153755;28;20050;-70
2023/06/21 01:21:26;;;;;;;13.15;7.90;;;;;;;20.96;61.26;99810.84;3153542;28;20056;-70
2023/06/21 01:23:12;;;;;;;9.38;6.93;;;;;;;20.93;61.48;99806.66;3153324;28;20060;-70
2023/06/21 01:24:58;;;;;;;15.30;7.55;;;;;;;20.93;61.33;99805.84;3153563;28;20052;-70
2023/06/21 01:26:49;;;;;;;9.40;6.75;;;;;;;20.92;61.17;99804.16;3138930;28;20052;-70
2023/06/21 01:28:36;;;;;;;14.05;7.20;;;;;;;20.84;61.52;99807.47;3149104;28;20440;-70
2023/06/21 01:30:11;;;;;;;12.40;7.38;;;;;;;20.74;61.96;99806.63;3153752;28;20056;-70
2023/06/21 01:31:45;;;;;;;12.52;7.57;;;;;;;20.69;62.32;99804.38;3153360;28;20101;-69
2023/06/21 01:33:18;;;;;;;10.25;7.22;;;;;;;20.65;62.59;99803.81;3153604;28;20047;-71
2023/06/21 01:34:51;;;;;;;11.23;7.38;;;;;;;20.58;62.43;99788.59;3153127;28;20056;-71
2023/06/21 01:36:23;;;;;;;10.60;6.88;;;;;;;20.66;62.51;99802.81;3142859;28;20443;-71
2023/06/21 01:37:58;;;;;;;14.45;7.85;;;;;;;20.63;62.61;99800.44;3142183;28;20102;-70
2023/06/21 01:39:30;;;;;;;12.57;7.15;;;;;;;20.66;62.39;99797.53;3152966;28;20052;-70
2023/06/21 01:41:02;;;;;;;14.93;7.03;;;;;;;20.66;62.42;99804.63;3146611;28;20061;-70
2023/06/21 01:42:34;;;;;;;10.80;7.13;;;;;;;20.64;62.24;99799.47;3131466;28;20044;-71
2023/06/21 01:44:09;;;;;;;14.23;6.57;;;;;;;20.64;62.30;99794.16;3147733;28;20048;-71
2023/06/21 01:45:42;;;;;;;11.98;7.07;;;;;;;20.64;62.03;99799.47;3152139;28;20164;-72
2023/06/21 01:47:14;;;;;;;;;;;;;;;20.41;62.89;99809.38;3153697;28;20106;-72
2023/06/21 01:48:47;;;;;;;8.27;6.45;;;;;;;20.41;62.88;99804.09;3153072;28;20038;-72
2023/06/21 01:50:22;;;;;;;11.05;6.57;;;;;;;20.41;63.04;99806.75;3151595;28;20052;-72
2023/06/21 01:51:56;;;;;;;8.85;6.30;;;;;;;20.40;62.77;99812.16;3142110;28;20189;-72
2023/06/21 01:53:28;;;;;;;11.88;6.95;;;;;;;20.35;62.75;99806.41;3148709;28;20055;-72
2023/06/21 01:55:01;;;;;;;14.50;7.75;;;;;;;20.32;63.25;99801.38;3153189;28;20063;-72
2023/06/21 01:56:33;;;;;;;10.68;7.25;;;;;;;20.30;63.21;99805.97;3143590;28;20052;-71
2023/06/21 01:58:05;;;;;;;13.23;6.50;;;;;;;20.26;63.46;99807.19;3146187;28;20052;-71
2023/06/21 01:59:38;;;;;;;11.23;6.85;;;;;;;20.25;63.44;99803.72;3153239;28;20044;-71
2023/06/21 02:01:11;;;;;;;12.43;6.93;;;;;;;20.21;63.35;99803.16;3153343;28;20051;-69
2023/06/21 02:02:47;;;;;;;9.18;6.13;;;;;;;20.23;63.68;99811.78;3152645;28;20060;-69
2023/06/21 02:04:24;;;;;;;14.10;6.93;;;;;;;20.21;63.58;99815.53;3152992;28;20074;-70
2023/06/21 02:05:57;;;;;;;10.23;6.95;;;;;;;20.19;63.57;99810.38;3145775;28;20044;-69
2023/06/21 02:07:29;;;;;;;13.93;6.97;;;;;;;20.20;63.41;99812.06;3152688;28;20055;-70
2023/06/21 02:09:05;;;;;;;12.23;6.82;;;;;;;20.18;63.62;99810.50;3149488;28;20507;-69
2023/06/21 02:10:38;;;;;;;9.43;6.32;;;;;;;20.15;63.79;99814.25;3151230;28;20083;-70
2023/06/21 02:12:10;;;;;;;11.10;6.82;;;;;;;20.19;63.97;99820.09;3147705;28;20052;-70
2023/06/21 02:13:42;;;;;;;11.45;7.03;;;;;;;20.21;63.69;99813.72;3142359;28;20143;-69
2023/06/21 02:15:15;;;;;;;10.90;6.85;;;;;;;20.26;63.50;99817.78;3152791;28;20521;-69
2023/06/21 02:16:49;;;;;;;13.15;7.03;;;;;;;20.25;63.44;99810.81;3152829;28;20111;-70
2023/06/21 02:18:21;;;;;;;10.93;7.00;;;;;;;20.23;63.75;99819.72;3152858;28;20051;-70
2023/06/21 02:19:54;;;;;;;10.77;7.25;;;;;;;20.18;64.01;99807.88;3152884;28;20445;-69
2023/06/21 02:21:27;;;;;;;11.48;7.38;;;;;;;20.10;64.28;99810.31;3128087;28;20103;-69
2023/06/21 02:22:58;;;;;;;9.18;6.75;;;;;;;20.04;64.45;99814.31;3151961;28;20117;-66
2023/06/21 02:24:30;;;;;;;14.13;7.07;;;;;;;19.99;64.67;99816.50;3150100;28;20052;-66
2023/06/21 02:26:02;;;;;;;12.45;7.50;;;;;;;19.91;64.86;99819.81;3143912;28;20152;-65
2023/06/21 02:27:33;;;;;;;11.48;7.57;;;;;;;19.83;65.11;99816.13;3149814;28;20113;-67
2023/06/21 02:29:05;;;;;;;10.77;6.90;;;;;;;19.77;65.22;99820.13;3152796;28;20490;-68
2023/06/21 02:30:37;;;;;;;12.18;7.25;;;;;;;19.73;65.36;99822.19;3152549;28;20121;-68
2023/06/21 02:32:10;;;;;;;16.45;7.63;;;;;;;19.72;65.23;99825.75;3152655;28;20509;-67
2023/06/21 02:33:44;;;;;;;;;;;;;;;19.46;65.68;99833.19;3151462;28;20109;-67
2023/06/21 02:35:16;;;;;;;9.18;7.28;;;;;;;19.49;65.79;99834.72;3143316;28;19923;-69
2023/06/21 02:36:53;;;;;;;12.68;7.68;;;;;;;19.51;65.89;99827.50;3140268;28;20052;-69
2023/06/21 02:38:25;;;;;;;9.73;7.05;;;;;;;19.49;65.72;99834.72;3143413;28;20047;-68
2023/06/21 02:39:58;;;;;;;10.63;7.03;;;;;;;19.50;65.82;99828.47;3143042;28;20766;-68
2023/06/21 02:41:29;;;;;;;10.88;6.50;;;;;;;19.50;65.91;99834.59;3143180;28;20389;-68
2023/06/21 02:43:01;;;;;;;10.98;6.90;;;;;;;19.51;65.86;99833.63;3144614;28;20094;-67
2023/06/21 02:44:34;;;;;;;9.95;6.95;;;;;;;19.51;65.71;99838.91;3152493;28;20618;-67
2023/06/21 02:46:05;;;;;;;18.58;7.43;;;;;;;19.53;65.86;99838.78;3152270;28;20048;-67
2023/06/21 02:47:39;;;;;;;12.02;6.82;;;;;;;19.55;65.74;99831.56;3152836;28;20062;-67
2023/06/21 02:49:10;;;;;;;;;;;;;;;19.39;65.75;99836.44;3153231;28;20058;-67
2023/06/21 02:50:42;;;;;;;10.52;5.85;;;;;;;19.48;65.74;99839.16;3152605;28;19974;-67
2023/06/21 02:52:14;;;;;;;9.65;6.57;;;;;;;19.54;65.62;99835.19;3152719;28;20086;-67
2023/06/21 02:53:46;;;;;;;10.68;6.65;;;;;;;19.60;65.13;99832.03;3151616;28;20113;-67
2023/06/21 02:55:18;;;;;;;12.40;6.80;;;;;;;19.63;65.25;99842.34;3150832;28;20055;-67
2023/06/21 02:56:50;;;;;;;11.32;6.70;;;;;;;19.63;64.86;99836.22;3145741;28;20048;-67
2023/06/21 02:58:22;;;;;;;10.75;7.07;;;;;;;19.60;65.00;99837.31;3149037;28;20368;-68
2023/06/21 02:59:53;;;;;;;10.10;6.97;;;;;;;19.57;64.99;99840.22;3152468;28;20051;-70
2023/06/21 03:01:25;;;;;;;10.13;6.55;;;;;;;19.48;65.09;99827.75;3152491;28;20052;-70
2023/06/21 03:02:59;;;;;;;9.93;6.40;;;;;;;19.55;64.93;99847.41;3152492;28;20060;-70
2023/06/21 03:04:31;;;;;;;10.73;6.97;;;;;;;19.49;65.01;99846.13;3156789;28;20054;-70
2023/06/21 03:06:05;;;;;;;9.50;6.90;;;;;;;19.43;64.99;99841.38;3150930;28;20070;-70
2023/06/21 03:07:37;;;;;;;10.90;7.07;;;;;;;19.44;65.31;99844.84;3151924;28;20409;-70
2023/06/21 03:09:08;;;;;;;11.77;6.82;;;;;;;19.43;65.17;99843.13;3153821;28;20097;-71
2023/06/21 03:10:40;;;;;;;9.43;6.30;;;;;;;19.45;65.13;99843.88;3151765;28;20059;-70
2023/06/21 03:12:12;;;;;;;12.38;7.03;;;;;;;19.47;65.20;99849.88;3158017;28;20059;-70
2023/06/21 03:13:44;;;;;;;11.57;7.03;;;;;;;19.49;65.23;99847.91;3157603;28;20501;-69
2023/06/21 03:15:15;;;;;;;12.93;7.05;;;;;;;19.52;64.92;99852.94;3157098;28;20055;-69
2023/06/21 03:16:47;;;;;;;13.60;7.00;;;;;;;19.53;64.83;99852.84;3157395;28;20048;-69
2023/06/21 03:18:20;;;;;;;10.75;6.75;;;;;;;19.56;65.04;99854.41;3157997;28;20225;-68
2023/06/21 03:19:51;;;;;;;13.05;7.82;;;;;;;19.56;64.90;99862.31;3157797;28;20052;-69
2023/06/21 03:21:23;;;;;;;10.43;6.43;;;;;;;19.57;65.02;99856.06;3149042;28;20411;-69
2023/06/21 03:22:55;;;;;;;11.70;6.50;;;;;;;19.62;64.67;99861.81;3156198;28;20055;-69
2023/06/21 03:24:32;;;;;;;13.02;6.72;;;;;;;19.64;64.78;99857.25;3156319;28;20048;-69
2023/06/21 03:26:03;;;;;;;11.90;6.63;;;;;;;19.66;64.94;99860.63;3148383;28;20406;-70
2023/06/21 03:27:34;;;;;;;12.77;6.40;;;;;;;19.70;64.79;99863.84;3154408;28;20098;-69
2023/06/21 03:29:06;;;;;;;17.27;7.15;;;;;;;19.72;64.59;99864.56;3157781;28;20048;-69
2023/06/21 03:30:38;;;;;;;14.43;7.10;;;;;;;19.75;64.39;99866.94;3157318;28;20075;-69
2023/06/21 03:32:10;;;;;;;14.10;7.43;;;;;;;19.75;64.09;99872.22;3157494;28;20056;-70
2023/06/21 03:33:44;;;;;;;10.93;8.07;;;;;;;19.67;64.23;99854.38;3157463;28;20494;-71
2023/06/21 03:35:16;;;;;;;14.32;8.15;;;;;;;19.74;64.21;99876.69;3154723;28;20059;-71
2023/06/21 03:36:48;;;;;;;11.25;7.68;;;;;;;19.76;64.36;99874.75;3145778;28;20158;-71
2023/06/21 03:38:19;;;;;;;12.00;6.65;;;;;;;19.77;64.32;99871.16;3149887;28;20048;-70
2023/06/21 03:39:50;;;;;;;13.15;6.70;;;;;;;19.78;64.19;99869.34;3153097;28;20516;-70
2023/06/21 03:41:22;;;;;;;11.85;6.60;;;;;;;19.78;64.15;99872.81;3151016;28;20048;-69
2023/06/21 03:42:53;;;;;;;11.40;6.65;;;;;;;19.81;64.21;99869.09;3150240;28;20448;-70
2023/06/21 03:44:25;;;;;;;9.80;6.13;;;;;;;19.83;64.08;99871.63;3157368;28;20112;-69
2023/06/21 03:45:58;;;;;;;9.68;5.88;;;;;;;19.83;63.87;99863.69;3157066;28;20504;-69
2023/06/21 03:47:30;;;;;;;;;;;;;;;19.67;64.24;99878.16;3145373;28;20448;-70
2023/06/21 03:49:04;;;;;;;9.05;5.95;;;;;;;19.73;64.12;99869.75;3153336;28;20365;-70
2023/06/21 03:50:36;;;;;;;8.65;6.43;;;;;;;19.77;64.04;99871.16;3132483;28;20049;-69
2023/06/21 03:52:08;;;;;;;12.20;5.82;;;;;;;19.77;64.01;99873.78;3156056;28;20050;-69
2023/06/21 03:53:40;;;;;;;11.23;5.55;;;;;;;19.78;64.15;99872.81;3155692;28;20117;-71
2023/06/21 03:55:12;;;;;;;10.52;6.28;;;;;;;19.64;63.89;99849.31;3144692;28;20051;-71
2023/06/21 03:56:44;;;;;;;13.55;7.00;;;;;;;19.77;63.92;99865.03;3152814;28;20089;-70
2023/06/21 03:58:16;;;;;;;8.18;6.40;;;;;;;19.81;63.69;99868.25;3156925;28;20052;-70
2023/06/21 03:59:48;;;;;;;12.15;7.03;;;;;;;19.82;63.77;99868.16;3157168;28;20052;-69
2023/06/21 04:01:20;;;;;;;9.73;6.65;;;;;;;19.84;63.87;99866.19;3157471;28;20089;-71
2023/06/21 04:02:51;;;;;;;11.70;7.00;;;;;;;19.85;63.56;99865.25;3155173;28;20109;-70
2023/06/21 04:04:24;;;;;;;12.80;6.47;;;;;;;19.87;63.62;99868.56;3154294;28;20052;-69
2023/06/21 04:05:56;;;;;;;10.98;6.53;;;;;;;19.87;63.85;99865.09;3153491;28;20081;-69
2023/06/21 04:07:28;;;;;;;11.02;5.93;;;;;;;19.90;63.97;99867.50;3157413;28;20410;-70
2023/06/21 04:08:59;;;;;;;11.88;6.32;;;;;;;19.93;63.92;99861.94;3149255;28;20063;-70
2023/06/21 04:10:31;;;;;;;12.35;6.07;;;;;;;19.96;63.63;99861.69;3148675;28;20063;-70
2023/06/21 04:12:02;;;;;;;9.30;6.03;;;;;;;19.95;63.76;99863.50;3149846;28;20437;-71
2023/06/21 04:13:35;;;;;;;7.82;5.70;;;;;;;19.99;63.82;99864.06;3157064;28;20044;-70
2023/06/21 04:15:08;;;;;;;8.95;6.07;;;;;;;20.00;63.68;99868.41;3157311;28;20048;-70
2023/06/21 04:16:40;;;;;;;13.90;6.40;;;;;;;20.00;63.50;99871.91;3157588;28;20051;-70
2023/06/21 04:18:11;;;;;;;9.75;6.57;;;;;;;20.03;63.55;99870.81;3147567;28;20052;-70
2023/06/21 04:19:45;;;;;;;13.45;6.20;;;;;;;20.07;63.45;99874.84;3157612;28;20052;-71
2023/06/21 04:21:16;;;;;;;9.80;6.88;;;;;;;20.04;63.43;99871.63;3157548;28;20056;-71
2023/06/21 04:22:47;;;;;;;10.65;6.25;;;;;;;20.09;63.33;99875.56;3152811;28;20060;-70
2023/06/21 04:24:19;;;;;;;22.25;6.97;;;;;;;20.14;63.06;99870.75;3157638;28;20529;-70
2023/06/21 04:25:51;;;;;;;10.93;6.40;;;;;;;20.18;63.08;99874.81;3151916;28;20075;-68
2023/06/21 04:27:23;;;;;;;13.55;6.70;;;;;;;20.21;63.47;99874.53;3157609;28;20532;-68
2023/06/21 04:28:55;;;;;;;13.63;6.85;;;;;;;20.25;63.40;99871.63;3159218;28;20605;-68
2023/06/21 04:30:27;;;;;;;16.85;7.43;;;;;;;20.29;63.20;99870.41;3158658;28;20050;-68
2023/06/21 04:31:59;;;;;;;10.77;6.38;;;;;;;20.32;62.83;99876.28;3150755;28;20455;-67
2023/06/21 04:33:31;;;;;;;14.90;7.03;;;;;;;20.35;63.13;99869.88;3146766;28;20052;-68
2023/06/21 04:35:04;;;;;;;15.30;7.38;;;;;;;20.40;62.78;99876.47;3158318;28;20436;-67
2023/06/21 04:36:36;;;;;;;13.98;6.40;;;;;;;20.39;62.79;99876.59;3154388;28;20052;-68
2023/06/21 04:38:08;;;;;;;12.65;6.70;;;;;;;20.42;62.66;99884.28;3148598;28;20045;-66
2023/06/21 04:39:40;;;;;;;14.57;6.70;;;;;;;20.42;62.46;99879.00;3159443;28;20464;-66
2023/06/21 04:41:12;;;;;;;14.98;6.45;;;;;;;20.38;62.48;99881.06;3151574;28;20045;-69
2023/06/21 04:42:44;;;;;;;12.35;6.65;;;;;;;20.37;62.41;99878.53;3155937;28;20413;-69
2023/06/21 04:44:17;;;;;;;11.68;7.88;;;;;;;20.42;62.20;99889.56;3151373;28;20048;-70
2023/06/21 04:45:49;;;;;;;18.13;10.90;;;;;;;20.44;62.20;99885.81;3151936;28;20494;-69
2023/06/21 04:47:21;;;;;;;14.27;7.40;;;;;;;20.50;62.29;99880.97;3159474;28;20074;-70
2023/06/21 04:48:53;;;;;;;17.85;7.35;;;;;;;20.54;62.02;99883.25;3159125;28;20055;-69
2023/06/21 04:50:26;;;;;;;12.98;6.88;;;;;;;20.60;62.04;99885.38;3159455;28;20543;-70
2023/06/21 04:51:58;;;;;;;40.22;22.45;;;;;;;20.64;61.50;99883.31;3159199;28;20043;-69
2023/06/21 04:53:30;;;;;;;23.83;16.08;;;;;;;20.71;61.68;99881.00;3156519;28;20052;-68
2023/06/21 04:55:02;;;;;;;11.48;7.18;;;;;;;20.78;61.37;99884.78;3158973;28;20055;-68
2023/06/21 04:56:35;;;;;;;11.38;7.00;;;;;;;20.84;61.12;99882.41;3154486;28;20040;-67
2023/06/21 04:58:08;;;;;;;11.15;6.55;;;;;;;20.87;61.20;99881.31;3149360;28;20068;-66
2023/06/21 04:59:40;;;;;;;11.65;6.47;;;;;;;20.90;61.03;99891.66;3148805;28;20052;-66
2023/06/21 05:01:13;;;;;;;11.07;6.47;;;;;;;20.96;61.21;99877.88;3155625;28;20163;-68
2023/06/21 05:02:45;;;;;;;12.40;6.30;;;;;;;20.98;61.00;99885.69;3158739;28;20048;-67
2023/06/21 05:04:17;;;;;;;11.85;6.20;;;;;;;20.99;60.62;99879.41;3155596;28;20179;-67
2023/06/21 05:05:50;;;;;;;13.77;6.40;;;;;;;21.02;60.63;99882.63;3149948;28;20097;-67
2023/06/21 05:07:21;;;;;;;;;;;;;;;20.87;60.94;99881.31;3154416;28;20479;-66
2023/06/21 05:08:54;;;;;;;14.57;6.15;;;;;;;20.82;60.70;99868.50;3157271;28;19935;-67
2023/06/21 05:10:25;;;;;;;14.48;6.55;;;;;;;20.93;60.64;99879.94;3156908;28;20102;-67
2023/06/21 05:11:57;;;;;;;15.07;6.70;;;;;;;20.97;60.32;99887.50;3147514;28;20567;-66
2023/06/21 05:13:29;;;;;;;10.95;6.65;;;;;;;20.99;60.11;99882.06;3154767;28;20044;-66
2023/06/21 05:15:01;;;;;;;8.43;6.18;;;;;;;21.03;60.07;99891.41;3147402;28;20052;-66
2023/06/21 05:16:33;;;;;;;10.68;6.65;;;;;;;21.08;59.89;99887.38;3128734;28;20053;-66
2023/06/21 05:18:06;;;;;;;15.48;6.35;;;;;;;21.13;60.28;99890.47;3152205;28;20193;-66
2023/06/21 05:19:38;;;;;;;10.43;6.50;;;;;;;21.18;59.98;99886.56;3128552;28;20600;-66
2023/06/21 05:21:11;;;;;;;10.82;6.43;;;;;;;21.20;59.73;99880.16;3150589;28;20132;-66
2023/06/21 05:22:44;;;;;;;17.45;6.97;;;;;;;21.26;59.59;99886.75;3148851;28;20621;-66
2023/06/21 05:24:16;;;;;;;11.48;6.53;;;;;;;21.30;59.65;99889.00;3153506;28;20730;-66
2023/06/21 05:25:48;;;;;;;11.18;6.80;;;;;;;21.29;59.87;99879.34;3148687;28;20058;-66
2023/06/21 05:27:19;;;;;;;14.48;6.97;;;;;;;21.34;59.35;99884.25;3143104;28;20095;-66
2023/06/21 05:28:51;;;;;;;12.98;6.68;;;;;;;21.41;59.60;99881.91;3143528;28;20060;-66
2023/06/21 05:30:23;;;;;;;11.20;7.13;;;;;;;21.47;59.24;99889.31;3146564;28;20098;-67
2023/06/21 05:31:55;;;;;;;13.05;6.40;;;;;;;21.52;59.36;99885.28;3153591;28;20054;-65
2023/06/21 05:33:27;;;;;;;15.15;6.75;;;;;;;21.60;59.19;99889.09;3153053;28;20131;-66
2023/06/21 05:34:59;;;;;;;16.83;7.03;;;;;;;21.61;59.42;99880.97;3152754;28;20048;-66
2023/06/21 05:36:32;;;;;;;11.40;6.32;;;;;;;21.71;59.29;99887.13;3134377;28;20302;-66
2023/06/21 05:38:04;;;;;;;20.23;7.38;;;;;;;21.74;58.67;99892.16;3142120;28;20071;-67
2023/06/21 05:39:36;;;;;;;10.77;6.03;;;;;;;21.80;58.78;99896.06;3153218;28;20136;-66
2023/06/21 05:41:08;;;;;;;14.85;7.05;;;;;;;21.78;58.64;99882.13;3145763;28;20553;-66
2023/06/21 05:42:41;;;;;;;21.77;8.75;;;;;;;21.91;58.86;99892.44;3145677;28;20138;-66
2023/06/21 05:44:14;;;;;;;11.25;7.10;;;;;;;21.99;58.65;99890.75;3153342;28;20138;-65
2023/06/21 05:45:46;;;;;;;19.20;7.40;;;;;;;22.04;58.92;99896.47;3153126;28;20058;-67
2023/06/21 05:47:17;;;;;;;15.07;6.70;;;;;;;22.13;58.46;99886.84;3152897;28;20056;-68
2023/06/21 05:48:49;;;;;;;10.68;5.57;;;;;;;22.22;58.05;99893.16;3143195;28;20139;-67
2023/06/21 05:50:21;;;;;;;12.88;6.70;;;;;;;22.32;58.36;99888.66;3149372;28;20265;-69
2023/06/21 05:51:55;;;;;;;13.02;6.47;;;;;;;22.44;57.97;99890.16;3147676;28;20058;-68
2023/06/21 05:53:27;;;;;;;16.95;6.88;;;;;;;22.53;57.34;99899.06;3146545;28;20104;-67
2023/06/21 05:55:00;;;;;;;14.43;6.38;;;;;;;22.60;57.11;99891.41;3153366;28;20063;-68
2023/06/21 05:56:37;;;;;;;11.05;7.20;;;;;;;22.64;57.35;99890.13;3146657;28;20155;-67
2023/06/21 05:58:09;;;;;;;9.25;6.47;;;;;;;22.70;56.93;99893.03;3141393;28;20041;-68
2023/06/21 05:59:41;;;;;;;12.90;7.00;;;;;;;22.81;56.48;99892.03;3147113;28;20071;-68
2023/06/21 06:01:13;;;;;;;13.10;6.88;;;;;;;22.89;56.59;99889.47;3153032;28;20044;-67
2023/06/21 06:02:46;;;;;;;13.68;7.40;;;;;;;22.97;55.97;99886.09;3152798;28;20531;-68
2023/06/21 06:04:18;;;;;;;17.27;6.60;;;;;;;22.98;56.05;99884.28;3146762;28;20550;-68
2023/06/21 06:05:50;;;;;;;11.88;6.70;;;;;;;23.05;55.61;99891.53;3147561;28;20059;-68
2023/06/21 06:07:24;;;;;;;22.13;7.32;;;;;;;23.10;55.84;99896.38;3152812;28;20048;-68
2023/06/21 06:08:56;;;;;;;12.55;6.47;;;;;;;23.14;55.34;99895.13;3149306;28;20135;-68
2023/06/21 06:10:28;;;;;;;13.48;6.38;;;;;;;23.23;55.64;99885.41;3143566;28;20063;-68
2023/06/21 06:12:00;;;;;;;8.57;5.90;;;;;;;23.31;55.58;99893.50;3152934;28;20162;-68
2023/06/21 06:13:32;;;;;;;9.88;6.50;;;;;;;23.36;55.21;99883.22;3152181;28;20052;-68
2023/06/21 06:15:05;;;;;;;10.18;6.70;;;;;;;23.35;54.84;99882.41;3152165;28;20063;-68
2023/06/21 06:16:37;;;;;;;10.88;5.78;;;;;;;23.35;54.93;99876.25;3152930;28;20048;-68
2023/06/21 06:18:09;;;;;;;14.80;5.95;;;;;;;23.41;54.31;99888.13;3152082;28;20548;-67
2023/06/21 06:19:41;;;;;;;8.48;5.60;;;;;;;23.40;54.50;99876.66;3150754;28;20056;-67
2023/06/21 06:21:14;;;;;;;10.23;5.88;;;;;;;23.44;54.31;99877.19;3150932;28;20404;-68
2023/06/21 06:22:48;;;;;;;;;;;;;;;23.30;54.59;99875.84;3153132;28;20284;-67
2023/06/21 06:24:20;;;;;;;11.38;6.43;;;;;;;23.35;54.31;99879.75;3143545;28;19924;-68
2023/06/21 06:25:52;;;;;;;10.30;6.15;;;;;;;23.44;54.59;99877.19;3140435;28;20135;-68
2023/06/21 06:27:24;;;;;;;11.70;6.60;;;;;;;23.51;54.24;99872.91;3148113;28;20461;-68
2023/06/21 06:28:56;;;;;;;11.02;5.40;;;;;;;23.58;54.35;99877.50;3152671;28;20115;-68
2023/06/21 06:30:28;;;;;;;12.18;6.65;;;;;;;23.64;54.10;99881.38;3152503;28;20070;-67
2023/06/21 06:32:00;;;;;;;15.40;6.05;;;;;;;23.70;53.90;99872.81;3152679;28;20079;-67
2023/06/21 06:33:32;;;;;;;9.60;5.65;;;;;;;23.79;53.36;99876.38;3152386;28;20048;-67
2023/06/21 06:35:06;;;;;;;9.05;5.97;;;;;;;23.82;53.21;99874.25;3146745;28;20071;-67
2023/06/21 06:36:38;;;;;;;18.65;6.40;;;;;;;23.89;53.12;99876.31;3141443;28;20061;-67
2023/06/21 06:38:12;;;;;;;14.10;6.03;;;;;;;23.99;53.00;99866.44;3145849;28;20056;-67
2023/06/21 06:39:44;;;;;;;10.35;6.28;;;;;;;24.05;52.97;99871.13;3152691;28;20108;-67
2023/06/21 06:41:17;;;;;;;12.00;6.13;;;;;;;24.16;52.67;99868.19;3143733;28;20430;-68
2023/06/21 06:42:49;;;;;;;10.35;5.75;;;;;;;24.21;52.32;99865.91;3143229;28;20052;-67
2023/06/21 06:44:21;;;;;;;12.98;6.10;;;;;;;24.27;52.12;99870.63;3149642;28;20055;-67
2023/06/21 06:45:53;;;;;;;10.57;5.63;;;;;;;24.31;51.37;99865.81;3152430;28;20063;-67
2023/06/21 06:47:28;;;;;;;11.70;6.10;;;;;;;24.37;50.94;99857.19;3146421;28;20098;-66
2023/06/21 06:49:00;;;;;;;14.85;5.22;;;;;;;24.45;51.20;99856.47;3144217;28;20048;-67
2023/06/21 06:50:32;;;;;;;13.30;6.43;;;;;;;24.48;50.57;99859.63;3147051;28;20063;-67
2023/06/21 06:52:05;;;;;;;10.95;6.18;;;;;;;24.57;50.51;99854.34;3141490;28;20114;-67
2023/06/21 06:53:38;;;;;;;10.20;5.90;;;;;;;24.64;50.09;99856.25;3143313;28;20418;-66
2023/06/21 06:55:10;;;;;;;;;;;;;;;24.60;50.25;99851.38;3145900;28;20066;-64
2023/06/21 06:56:42;;;;;;;17.35;6.68;;;;;;;24.71;49.98;99851.94;3140967;28;20018;-67
2023/06/21 06:58:14;;;;;;;34.38;22.13;;;;;;;24.79;49.83;99848.50;3143901;28;20496;-67
2023/06/21 06:59:54;;;;;;;23.88;15.40;;;;;;;24.90;49.67;99839.38;3152507;28;20097;-66
2023/06/21 07:01:27;;;;;;;10.23;5.95;;;;;;;24.99;49.48;99841.06;3152335;28;20091;-67
2023/06/21 07:03:00;;;;;;;12.40;5.53;;;;;;;25.06;48.96;99839.44;3152270;28;20159;-63
2023/06/21 07:05:02;;;;;;;14.77;5.47;;;;;;;25.16;48.90;99848.16;3147906;28;20056;-65
2023/06/21 07:06:51;;;;;;;16.75;6.43;;;;;;;25.23;48.89;99847.50;3099226;28;20076;-65
2023/06/21 07:08:23;;;;;;;12.15;6.10;;;;;;;25.31;48.34;99840.34;3139611;28;20040;-64
2023/06/21 07:10:46;;;;;;;12.85;6.13;;;;;;;25.41;48.34;99837.56;3146954;28;20056;-65
2023/06/21 07:12:39;;;;;;;11.05;5.47;;;;;;;25.51;48.17;99840.91;3096053;28;20100;-66
2023/06/21 07:14:23;;;;;;;13.27;6.47;;;;;;;25.65;48.40;99842.09;3099933;28;20094;-66
2023/06/21 07:16:10;;;;;;;11.07;6.10;;;;;;;25.77;47.74;99842.59;3110036;28;20066;-66